Aviation Digital Data Service (ADDS)

Output produced by METARs form (2126 UTC 18 April 2021)
found at http://www.aviationweather.gov/metar/data/
 
Forecast for: ZJSY (SANYA/FENGHUANG , CN)
Text: TAF ZJSY 181501Z 1818/1918 09004MPS 9999 SCT020 TX31/1906Z TN24/1821Z
Forecast period: 1800 UTC 18 April 2021 to 1800 UTC 19 April 2021
Forecast type: FROM: standard forecast or significant change
Winds: from the E (90 degrees) at 9 MPH (8 knots; 4.1 m/s)
Visibility: 6 or more miles (10+ km)
Ceiling: at least 12,000 feet AGL
Clouds: scattered clouds at 2000 feet AGL
Weather: no significant weather forecast for this period